Nashville, Tennessee
Traffic Map
Current Weather Conditions
Nashville, Tennessee
Overcast
Overcast
35°
Feels Like: 35°
Wind Chill: 35° Ceiling: 20000
Heat Index: 35° Visibility: 9mi
Dew Point: 29° Wind: 0mph
Humidity: 78% Direction: ° ()
Pressure: 30.08in Gusts: 0mph
Raw Report DataKBNA 190753Z 00000KT 9SM OVC200 02/M02 A3008 RMK AO2 SLP187 T00171017
Traffic Incident Summary
Active as of:
Severity:
Category:
InformationThere was an issue retrieving the traffic information for this location. Please try a different location or try again shortly.
Advertisements